createdAt,value
2023-03-03T00:00:24.533Z,64.52
2023-03-03T00:01:24.524Z,60.75
2023-03-03T00:02:24.599Z,66.76
2023-03-03T00:03:24.571Z,55.18
2023-03-03T00:04:24.509Z,47.29
2023-03-03T00:05:24.508Z,55.03
2023-03-03T00:06:24.494Z,59.54
2023-03-03T00:07:24.485Z,57.23
2023-03-03T00:08:24.506Z,50.14
2023-03-03T00:09:24.473Z,67.75
2023-03-03T00:10:24.469Z,64.64
2023-03-03T00:11:24.452Z,50.42
2023-03-03T00:12:24.455Z,49.16
2023-03-03T00:13:24.471Z,57.74
2023-03-03T00:14:24.430Z,66.88
2023-03-03T00:15:24.423Z,54.88
2023-03-03T00:16:24.484Z,50.11
2023-03-03T00:17:24.438Z,55.10
2023-03-03T00:18:24.425Z,66.39
2023-03-03T00:19:24.407Z,59.86
2023-03-03T00:20:24.390Z,60.27
2023-03-03T00:21:24.386Z,59.46
2023-03-03T00:22:24.377Z,52.74
2023-03-03T00:23:24.392Z,53.22
2023-03-03T00:24:24.354Z,51.74
2023-03-03T00:25:24.345Z,53.06
2023-03-03T00:26:24.333Z,56.68
2023-03-03T00:27:24.351Z,49.60
2023-03-03T00:28:24.357Z,52.46
2023-03-03T00:29:24.327Z,50.73
2023-03-03T00:30:24.313Z,52.09
2023-03-03T00:31:24.362Z,51.40
2023-03-03T00:32:24.380Z,59.54
2023-03-03T00:33:24.316Z,57.32
2023-03-03T00:34:25.280Z,63.77
2023-03-03T00:35:24.312Z,55.23
2023-03-03T00:36:24.266Z,53.93
2023-03-03T00:37:24.269Z,55.22
2023-03-03T00:38:24.257Z,57.76
2023-03-03T00:39:24.274Z,52.51
2023-03-03T00:40:24.238Z,52.97
2023-03-03T00:41:24.237Z,59.15
2023-03-03T00:42:24.218Z,60.91
2023-03-03T00:43:24.224Z,66.26
2023-03-03T00:44:24.232Z,50.02
2023-03-03T00:45:24.201Z,53.69
2023-03-03T00:46:24.244Z,49.29
2023-03-03T00:47:24.184Z,56.92
2023-03-03T00:48:24.176Z,56.70
2023-03-03T00:49:24.202Z,61.49
2023-03-03T00:50:24.158Z,57.04
2023-03-03T00:51:24.152Z,51.90
2023-03-03T00:52:24.148Z,67.53
2023-03-03T00:53:24.137Z,60.22
2023-03-03T00:54:24.162Z,47.47
2023-03-03T00:55:24.129Z,49.96
2023-03-03T00:56:24.121Z,52.36
2023-03-03T00:57:24.108Z,50.95
2023-03-03T00:58:24.103Z,58.27
2023-03-03T00:59:24.122Z,50.24
2023-03-03T01:00:24.088Z,49.76
2023-03-03T01:01:24.109Z,57.25
2023-03-03T01:02:24.119Z,68.95
2023-03-03T01:03:24.065Z,59.40
2023-03-03T01:04:24.085Z,58.37
2023-03-03T01:05:24.045Z,55.49
2023-03-03T01:06:24.040Z,55.61
2023-03-03T01:07:24.039Z,49.21
2023-03-03T01:08:24.026Z,58.71
2023-03-03T01:09:24.043Z,68.17
2023-03-03T01:10:24.015Z,58.16
2023-03-03T01:11:24.021Z,52.80
2023-03-03T01:12:24.000Z,61.71
2023-03-03T01:13:24.069Z,60.03
2023-03-03T01:14:24.103Z,56.68
2023-03-03T01:15:24.017Z,58.23
2023-03-03T01:16:24.128Z,48.00
2023-03-03T01:17:23.954Z,50.84
2023-03-03T01:18:23.954Z,61.61
2023-03-03T01:19:23.958Z,57.22
2023-03-03T01:20:23.942Z,56.44
2023-03-03T01:21:23.999Z,56.10
2023-03-03T01:22:23.938Z,46.59
2023-03-03T01:23:23.946Z,50.41
2023-03-03T01:24:24.000Z,53.58
2023-03-03T01:25:23.896Z,60.38
2023-03-03T01:26:23.890Z,53.40
2023-03-03T01:27:23.883Z,54.94
2023-03-03T01:28:23.871Z,48.46
2023-03-03T01:29:23.889Z,50.89
2023-03-03T01:30:23.855Z,67.83
2023-03-03T01:31:23.926Z,59.30
2023-03-03T01:32:23.896Z,60.05
2023-03-03T01:33:23.842Z,55.67
2023-03-03T01:34:23.846Z,61.35
2023-03-03T01:35:23.839Z,52.15
2023-03-03T01:36:23.843Z,60.86
2023-03-03T01:37:23.802Z,54.03
2023-03-03T01:38:23.806Z,62.32
2023-03-03T01:39:23.836Z,59.58
2023-03-03T01:40:23.776Z,48.88
2023-03-03T01:41:23.788Z,51.59
2023-03-03T01:42:23.761Z,57.13
2023-03-03T01:43:23.768Z,46.11
2023-03-03T01:44:24.205Z,49.08
2023-03-03T01:45:23.749Z,50.17
2023-03-03T01:46:23.775Z,47.01
2023-03-03T01:47:23.729Z,53.44
2023-03-03T01:48:23.721Z,54.86
2023-03-03T01:49:23.746Z,46.11
2023-03-03T01:50:23.718Z,48.82
2023-03-03T01:51:23.702Z,53.65
2023-03-03T01:52:23.694Z,53.27
2023-03-03T01:53:23.692Z,54.71
2023-03-03T01:54:23.713Z,53.79
2023-03-03T01:55:23.675Z,51.68
2023-03-03T01:56:23.669Z,53.37
2023-03-03T01:57:23.661Z,53.04
2023-03-03T01:58:23.654Z,48.47
2023-03-03T01:59:23.681Z,54.99
2023-03-03T02:00:23.639Z,46.32
2023-03-03T02:01:23.705Z,55.58
2023-03-03T02:02:23.629Z,56.93
2023-03-03T02:03:23.644Z,58.62
2023-03-03T02:04:23.608Z,52.45
2023-03-03T02:05:23.635Z,49.74
2023-03-03T02:06:23.603Z,54.38
2023-03-03T02:07:23.586Z,60.31
2023-03-03T02:08:23.585Z,53.62
2023-03-03T02:09:23.581Z,56.22
2023-03-03T02:10:23.600Z,56.96
2023-03-03T02:11:23.558Z,58.46
2023-03-03T02:12:23.566Z,46.85
2023-03-03T02:13:23.565Z,54.97
2023-03-03T02:14:23.537Z,48.08
2023-03-03T02:15:23.582Z,47.59
2023-03-03T02:16:23.595Z,54.61
2023-03-03T02:17:23.540Z,57.44
2023-03-03T02:18:23.513Z,54.48
2023-03-03T02:19:23.503Z,55.72
2023-03-03T02:20:23.525Z,60.27
2023-03-03T02:21:23.495Z,58.84
2023-03-03T02:22:23.483Z,51.02
2023-03-03T02:23:23.474Z,57.87
2023-03-03T02:24:23.475Z,59.43
2023-03-03T02:25:23.491Z,64.75
2023-03-03T02:26:23.467Z,56.23
2023-03-03T02:27:23.453Z,56.73
2023-03-03T02:28:23.452Z,57.55
2023-03-03T02:29:23.435Z,55.74
2023-03-03T02:30:23.452Z,47.58
2023-03-03T02:31:23.462Z,54.51
2023-03-03T02:32:23.446Z,61.35
2023-03-03T02:33:23.405Z,59.87
2023-03-03T02:34:23.396Z,56.60
2023-03-03T02:35:23.457Z,49.61
2023-03-03T02:36:23.382Z,57.68
2023-03-03T02:37:23.384Z,44.98
2023-03-03T02:38:23.373Z,48.12
2023-03-03T02:39:23.371Z,48.42
2023-03-03T02:40:23.386Z,55.79
2023-03-03T02:41:23.346Z,50.20
2023-03-03T02:42:23.354Z,51.47
2023-03-03T02:43:23.330Z,57.92
2023-03-03T02:44:23.324Z,56.67
2023-03-03T02:45:23.448Z,51.62
2023-03-03T02:46:23.320Z,59.66
2023-03-03T02:47:23.302Z,61.21
2023-03-03T02:48:23.355Z,51.25
2023-03-03T02:49:23.294Z,56.37
2023-03-03T02:50:23.305Z,61.72
2023-03-03T02:51:23.274Z,55.20
2023-03-03T02:52:23.284Z,52.45
2023-03-03T02:53:23.271Z,62.24
2023-03-03T02:54:23.251Z,59.23
2023-03-03T02:55:23.298Z,60.87
2023-03-03T02:56:23.239Z,56.04
2023-03-03T02:57:23.227Z,54.53
2023-03-03T02:58:23.235Z,56.10
2023-03-03T02:59:23.225Z,59.25
2023-03-03T03:00:23.199Z,61.45
2023-03-03T03:01:23.325Z,58.41
2023-03-03T03:02:23.188Z,53.42
2023-03-03T03:03:23.198Z,53.80
2023-03-03T03:04:23.234Z,59.57
2023-03-03T03:05:23.160Z,58.29
2023-03-03T03:06:23.181Z,54.81
2023-03-03T03:07:23.145Z,54.79
2023-03-03T03:08:23.143Z,52.15
2023-03-03T03:09:23.140Z,55.52
2023-03-03T03:10:23.133Z,51.85
2023-03-03T03:11:23.146Z,62.42
2023-03-03T03:12:23.120Z,64.26
2023-03-03T03:13:23.099Z,50.10
2023-03-03T03:14:23.104Z,52.18
2023-03-03T03:15:23.115Z,51.68
2023-03-03T03:16:23.148Z,48.05
2023-03-03T03:17:23.076Z,50.08
2023-03-03T03:18:23.071Z,50.26
2023-03-03T03:19:23.064Z,57.97
2023-03-03T03:20:23.047Z,63.02
2023-03-03T03:21:23.060Z,49.97
2023-03-03T03:22:23.039Z,46.87
2023-03-03T03:23:23.023Z,53.28
2023-03-03T03:24:23.025Z,54.87
2023-03-03T03:25:23.010Z,57.08
2023-03-03T03:26:23.025Z,50.77
2023-03-03T03:27:22.996Z,54.90
2023-03-03T03:28:22.991Z,56.22
2023-03-03T03:29:23.014Z,48.26
2023-03-03T03:30:22.984Z,58.49
2023-03-03T03:31:23.016Z,51.87
2023-03-03T03:32:23.060Z,58.09
2023-03-03T03:33:22.964Z,57.42
2023-03-03T03:34:22.962Z,58.13
2023-03-03T03:35:23.051Z,64.29
2023-03-03T03:36:22.971Z,62.65
2023-03-03T03:37:22.945Z,60.14
2023-03-03T03:38:22.916Z,67.43
2023-03-03T03:39:22.915Z,56.49
2023-03-03T03:40:22.904Z,60.38
2023-03-03T03:41:22.949Z,55.80
2023-03-03T03:42:22.887Z,60.21
2023-03-03T03:43:22.895Z,60.73
2023-03-03T03:44:22.873Z,63.23
2023-03-03T03:45:22.875Z,61.75
2023-03-03T03:46:22.962Z,58.02
2023-03-03T03:47:22.848Z,66.49
2023-03-03T03:48:22.836Z,55.50
2023-03-03T03:49:22.838Z,53.87
2023-03-03T03:50:22.830Z,66.83
2023-03-03T03:51:22.846Z,57.23
2023-03-03T03:52:22.833Z,58.28
2023-03-03T03:53:22.815Z,56.50
2023-03-03T03:54:22.802Z,57.74
2023-03-03T03:55:22.799Z,55.15
2023-03-03T03:56:22.819Z,55.71
2023-03-03T03:57:24.029Z,59.23
2023-03-03T03:58:22.769Z,57.52
2023-03-03T03:59:22.768Z,58.31
2023-03-03T04:00:22.757Z,53.19
2023-03-03T04:01:22.790Z,66.63
2023-03-03T04:02:22.821Z,63.40
2023-03-03T04:03:22.799Z,53.07
2023-03-03T04:04:22.727Z,58.87
2023-03-03T04:05:22.720Z,55.95
2023-03-03T04:06:22.735Z,57.41
2023-03-03T04:07:22.712Z,58.91
2023-03-03T04:08:22.696Z,59.24
2023-03-03T04:09:22.704Z,61.23
2023-03-03T04:10:22.692Z,63.66
2023-03-03T04:11:22.696Z,57.30
2023-03-03T04:12:22.664Z,65.23
2023-03-03T04:13:22.659Z,66.63
2023-03-03T04:14:22.653Z,60.68
2023-03-03T04:15:22.650Z,63.01
2023-03-03T04:16:22.666Z,61.34
2023-03-03T04:17:22.628Z,61.51
2023-03-03T04:18:22.616Z,63.94
2023-03-03T04:19:23.617Z,65.77
2023-03-03T04:20:22.617Z,59.94
2023-03-03T04:21:22.605Z,61.54
2023-03-03T04:22:22.640Z,60.21
2023-03-03T04:23:22.590Z,60.54
2023-03-03T04:24:22.581Z,65.51
2023-03-03T04:25:22.569Z,59.00
2023-03-03T04:26:22.571Z,64.35
2023-03-03T04:27:22.584Z,61.77
2023-03-03T04:28:22.552Z,63.73
2023-03-03T04:29:22.558Z,65.18
2023-03-03T04:30:22.539Z,63.84
2023-03-03T04:31:22.599Z,61.92
2023-03-03T04:32:22.555Z,69.12
2023-03-03T04:33:22.508Z,62.32
2023-03-03T04:34:22.511Z,60.06
2023-03-03T04:35:22.544Z,62.14
2023-03-03T04:36:22.491Z,62.97
2023-03-03T04:37:22.509Z,62.48
2023-03-03T04:38:22.493Z,64.99
2023-03-03T04:39:22.463Z,59.22
2023-03-03T04:40:22.459Z,60.71
2023-03-03T04:41:22.485Z,64.29
2023-03-03T04:42:22.464Z,64.17
2023-03-03T04:43:22.432Z,67.03
2023-03-03T04:44:22.429Z,62.12
2023-03-03T04:45:22.416Z,59.74
2023-03-03T04:46:22.496Z,61.04
2023-03-03T04:47:22.442Z,64.25
2023-03-03T04:48:22.407Z,66.66
2023-03-03T04:49:22.403Z,64.54
2023-03-03T04:50:22.394Z,63.69
2023-03-03T04:51:22.383Z,59.75
2023-03-03T04:52:22.401Z,60.35
2023-03-03T04:53:22.363Z,61.18
2023-03-03T04:54:22.358Z,62.95
2023-03-03T04:55:22.358Z,64.29
2023-03-03T04:56:22.341Z,61.62
2023-03-03T04:57:22.364Z,62.07
2023-03-03T04:58:22.334Z,60.77
2023-03-03T04:59:22.321Z,64.38
2023-03-03T05:00:22.307Z,62.43
2023-03-03T05:01:22.329Z,65.52
2023-03-03T05:02:22.327Z,62.55
2023-03-03T05:03:22.292Z,61.57
2023-03-03T05:04:22.302Z,61.77
2023-03-03T05:05:22.270Z,61.88
2023-03-03T05:06:22.266Z,63.77
2023-03-03T05:07:22.279Z,65.07
2023-03-03T05:08:22.257Z,61.24
2023-03-03T05:09:22.250Z,62.28
2023-03-03T05:10:22.238Z,61.78
2023-03-03T05:11:22.230Z,64.57
2023-03-03T05:12:22.243Z,62.75
2023-03-03T05:13:22.217Z,64.96
2023-03-03T05:14:22.206Z,62.11
2023-03-03T05:15:22.199Z,65.66
2023-03-03T05:16:22.234Z,63.16
2023-03-03T05:17:22.251Z,62.47
2023-03-03T05:18:22.172Z,63.12
2023-03-03T05:19:22.162Z,63.80
2023-03-03T05:20:22.156Z,67.48
2023-03-03T05:21:22.137Z,61.99
2023-03-03T05:22:23.158Z,63.79
2023-03-03T05:23:22.126Z,60.16
2023-03-03T05:24:22.133Z,61.47
2023-03-03T05:25:22.120Z,64.23
2023-03-03T05:26:22.108Z,63.88
2023-03-03T05:27:22.133Z,64.01
2023-03-03T05:28:22.096Z,64.79
2023-03-03T05:29:22.090Z,64.38
2023-03-03T05:30:22.074Z,63.48
2023-03-03T05:31:22.109Z,68.46
2023-03-03T05:32:22.142Z,63.85
2023-03-03T05:33:22.062Z,62.96
2023-03-03T05:34:22.047Z,64.68
2023-03-03T05:35:22.062Z,69.18
2023-03-03T05:36:22.042Z,65.63
2023-03-03T05:37:22.052Z,61.69
2023-03-03T05:38:22.023Z,67.62
2023-03-03T05:39:22.005Z,67.95
2023-03-03T05:40:22.001Z,69.95
2023-03-03T05:41:22.000Z,65.28
2023-03-03T05:42:22.083Z,68.57
2023-03-03T05:43:21.994Z,66.89
2023-03-03T05:44:21.975Z,64.96
2023-03-03T05:45:21.971Z,65.53
2023-03-03T05:46:22.030Z,64.84
2023-03-03T05:47:21.991Z,68.34
2023-03-03T05:48:21.949Z,66.15
2023-03-03T05:49:21.941Z,65.93
2023-03-03T05:50:21.933Z,66.98
2023-03-03T05:51:21.933Z,65.53
2023-03-03T05:52:21.942Z,66.80
2023-03-03T05:53:21.911Z,66.38
2023-03-03T05:54:21.917Z,69.25
2023-03-03T05:55:21.892Z,65.00
2023-03-03T05:56:21.889Z,61.93
2023-03-03T05:57:21.902Z,66.45
2023-03-03T05:58:21.876Z,69.06
2023-03-03T05:59:21.863Z,64.72
2023-03-03T06:00:21.859Z,68.39
2023-03-03T06:01:21.858Z,65.18
2023-03-03T06:02:21.870Z,66.51
2023-03-03T06:03:21.917Z,66.78
2023-03-03T06:04:21.841Z,64.73
2023-03-03T06:05:21.830Z,68.92
2023-03-03T06:06:21.817Z,68.83
2023-03-03T06:07:21.844Z,64.09
2023-03-03T06:08:21.805Z,65.68
2023-03-03T06:09:21.800Z,68.61
2023-03-03T06:10:21.789Z,64.63
2023-03-03T06:11:21.779Z,66.67
2023-03-03T06:12:21.803Z,65.06
2023-03-03T06:13:21.763Z,66.53
2023-03-03T06:14:21.758Z,67.41
2023-03-03T06:15:21.777Z,67.24
2023-03-03T06:16:21.765Z,64.70
2023-03-03T06:17:21.772Z,66.59
2023-03-03T06:18:21.738Z,66.84
2023-03-03T06:19:21.730Z,65.27
2023-03-03T06:20:21.718Z,70.72
2023-03-03T06:21:21.704Z,65.85
2023-03-03T06:22:21.726Z,65.43
2023-03-03T06:23:21.700Z,64.53
2023-03-03T06:24:21.678Z,67.06
2023-03-03T06:25:21.678Z,70.19
2023-03-03T06:26:21.670Z,65.32
2023-03-03T06:27:21.680Z,68.25
2023-03-03T06:28:21.664Z,67.19
2023-03-03T06:29:21.646Z,65.67
2023-03-03T06:30:21.632Z,67.10
2023-03-03T06:31:21.678Z,67.07
2023-03-03T06:32:21.729Z,67.20
2023-03-03T06:33:21.616Z,66.97
2023-03-03T06:34:21.612Z,64.74
2023-03-03T06:35:21.632Z,68.61
2023-03-03T06:36:21.593Z,68.54
2023-03-03T06:37:21.605Z,69.06
2023-03-03T06:38:21.615Z,65.33
2023-03-03T06:39:21.578Z,65.81
2023-03-03T06:40:21.560Z,66.79
2023-03-03T06:41:21.552Z,64.84
2023-03-03T06:42:21.582Z,68.43
2023-03-03T06:43:21.536Z,67.03
2023-03-03T06:44:21.534Z,65.61
2023-03-03T06:45:21.527Z,67.38
2023-03-03T06:46:21.522Z,67.85
2023-03-03T06:47:21.523Z,67.93
2023-03-03T06:48:22.506Z,68.68
2023-03-03T06:49:21.498Z,65.72
2023-03-03T06:50:21.494Z,64.41
2023-03-03T06:51:21.482Z,66.28
2023-03-03T06:52:21.504Z,66.91
2023-03-03T06:53:21.474Z,67.06
2023-03-03T06:54:21.461Z,66.27
2023-03-03T06:55:21.465Z,64.25
2023-03-03T06:56:21.445Z,64.23
2023-03-03T06:57:21.462Z,67.82
2023-03-03T06:58:21.429Z,66.52
2023-03-03T06:59:21.432Z,66.12
2023-03-03T07:00:21.451Z,64.77
2023-03-03T07:01:21.433Z,64.65
2023-03-03T07:02:21.452Z,64.57
2023-03-03T07:03:21.394Z,66.09
2023-03-03T07:04:21.504Z,63.49
2023-03-03T07:05:21.380Z,64.54
2023-03-03T07:06:21.382Z,65.98
2023-03-03T07:07:21.408Z,64.85
2023-03-03T07:08:21.424Z,64.96
2023-03-03T07:09:21.375Z,64.64
2023-03-03T07:10:21.351Z,64.69
2023-03-03T07:11:21.365Z,65.48
2023-03-03T07:12:21.352Z,66.56
2023-03-03T07:13:21.387Z,64.34
2023-03-03T07:14:21.319Z,66.27
2023-03-03T07:15:21.317Z,63.91
2023-03-03T07:16:21.330Z,65.98
2023-03-03T07:17:21.299Z,65.34
2023-03-03T07:18:21.323Z,64.35
2023-03-03T07:19:21.296Z,61.99
2023-03-03T07:20:21.287Z,64.70
2023-03-03T07:21:21.269Z,63.01
2023-03-03T07:22:21.262Z,65.30
2023-03-03T07:23:21.290Z,65.73
2023-03-03T07:24:21.245Z,64.38
2023-03-03T07:25:21.249Z,69.71
2023-03-03T07:26:21.234Z,66.65
2023-03-03T07:27:21.234Z,64.86
2023-03-03T07:28:21.251Z,65.31
2023-03-03T07:29:21.215Z,66.62
2023-03-03T07:30:21.222Z,67.28
2023-03-03T07:31:21.245Z,67.02
2023-03-03T07:32:21.264Z,64.63
2023-03-03T07:33:21.208Z,67.38
2023-03-03T07:34:21.188Z,62.74
2023-03-03T07:35:21.186Z,63.97
2023-03-03T07:36:21.165Z,63.34
2023-03-03T07:37:21.159Z,64.37
2023-03-03T07:38:21.187Z,59.90
2023-03-03T07:39:21.153Z,65.98
2023-03-03T07:40:21.142Z,62.67
2023-03-03T07:41:21.130Z,67.46
2023-03-03T07:42:21.147Z,66.40
2023-03-03T07:43:21.143Z,65.28
2023-03-03T07:44:21.119Z,65.53
2023-03-03T07:45:21.106Z,62.02
2023-03-03T07:46:21.128Z,62.08
2023-03-03T07:47:21.093Z,60.52
2023-03-03T07:48:21.104Z,65.35
2023-03-03T07:49:21.099Z,69.96
2023-03-03T07:50:21.064Z,65.02
2023-03-03T07:51:21.056Z,63.32
2023-03-03T07:52:21.051Z,61.42
2023-03-03T07:53:21.067Z,56.49
2023-03-03T07:54:21.034Z,62.00
2023-03-03T07:55:21.031Z,68.01
2023-03-03T07:56:21.025Z,70.42
2023-03-03T07:57:21.017Z,65.05
2023-03-03T07:58:21.034Z,63.43
2023-03-03T07:59:21.023Z,62.35
2023-03-03T08:00:21.040Z,65.25
2023-03-03T08:01:20.983Z,63.87
2023-03-03T08:02:20.972Z,61.69
2023-03-03T08:03:20.998Z,63.92
2023-03-03T08:04:21.077Z,65.31
2023-03-03T08:05:21.103Z,64.31
2023-03-03T08:06:20.962Z,65.00
2023-03-03T08:07:20.941Z,65.86
2023-03-03T08:08:20.963Z,62.68
2023-03-03T08:09:20.926Z,66.61
2023-03-03T08:10:20.959Z,65.34
2023-03-03T08:11:20.911Z,62.76
2023-03-03T08:12:20.899Z,66.85
2023-03-03T08:13:21.193Z,66.73
2023-03-03T08:14:20.892Z,66.62
2023-03-03T08:15:20.874Z,64.14
2023-03-03T08:16:20.945Z,67.81
2023-03-03T08:17:20.855Z,65.13
2023-03-03T08:18:20.888Z,66.22
2023-03-03T08:19:20.829Z,66.13
2023-03-03T08:20:20.827Z,68.04
2023-03-03T08:21:20.832Z,66.51
2023-03-03T08:22:20.815Z,66.83
2023-03-03T08:23:20.796Z,66.04
2023-03-03T08:24:20.822Z,65.17
2023-03-03T08:25:20.782Z,66.11
2023-03-03T08:26:20.783Z,65.74
2023-03-03T08:27:20.768Z,62.18
2023-03-03T08:28:20.762Z,63.29
2023-03-03T08:29:20.797Z,63.37
2023-03-03T08:30:20.750Z,66.18
2023-03-03T08:31:38.367Z,63.70
2023-03-03T08:32:22.850Z,65.10
2023-03-03T08:33:20.745Z,62.26
2023-03-03T08:34:20.744Z,60.36
2023-03-03T08:35:20.802Z,65.38
2023-03-03T08:36:20.710Z,65.12
2023-03-03T08:37:20.710Z,66.15
2023-03-03T08:38:20.685Z,66.07
2023-03-03T08:39:20.715Z,63.04
2023-03-03T08:40:20.678Z,64.76
2023-03-03T08:41:20.670Z,65.71
2023-03-03T08:42:20.656Z,66.59
2023-03-03T08:43:20.654Z,65.58
2023-03-03T08:44:20.708Z,66.69
2023-03-03T08:45:20.641Z,63.92
2023-03-03T08:46:20.659Z,65.12
2023-03-03T08:47:20.628Z,66.00
2023-03-03T08:48:20.620Z,66.19
2023-03-03T08:49:20.632Z,65.25
2023-03-03T08:50:21.625Z,67.15
2023-03-03T08:51:20.601Z,69.72
2023-03-03T08:52:20.591Z,67.45
2023-03-03T08:53:20.578Z,64.42
2023-03-03T08:54:20.604Z,65.71
2023-03-03T08:55:20.568Z,63.82
2023-03-03T08:56:20.572Z,64.28
2023-03-03T08:57:20.564Z,69.58
2023-03-03T08:58:22.360Z,64.82
2023-03-03T08:59:21.595Z,64.11
2023-03-03T09:00:20.535Z,65.85
2023-03-03T09:01:20.531Z,64.03
2023-03-03T09:02:20.522Z,64.89
2023-03-03T09:03:20.537Z,65.01
2023-03-03T09:04:20.571Z,61.64
2023-03-03T09:05:20.500Z,64.07
2023-03-03T09:06:20.495Z,67.72
2023-03-03T09:07:20.489Z,64.55
2023-03-03T09:08:20.469Z,66.37
2023-03-03T09:09:20.497Z,65.22
2023-03-03T09:10:20.463Z,63.77
2023-03-03T09:11:20.451Z,64.61
2023-03-03T09:12:20.450Z,67.68
2023-03-03T09:13:20.443Z,65.55
2023-03-03T09:14:20.465Z,65.41
2023-03-03T09:15:20.428Z,64.02
2023-03-03T09:16:20.443Z,67.81
2023-03-03T09:17:20.404Z,66.63
2023-03-03T09:18:20.426Z,62.85
2023-03-03T09:19:20.416Z,65.81
2023-03-03T09:20:20.389Z,61.59
2023-03-03T09:21:20.375Z,64.06
2023-03-03T09:22:21.378Z,67.34
2023-03-03T09:23:20.359Z,66.00
2023-03-03T09:24:20.389Z,61.50
2023-03-03T09:25:20.351Z,61.46
2023-03-03T09:26:20.371Z,65.06
2023-03-03T09:27:20.330Z,61.55
2023-03-03T09:28:20.320Z,67.38
2023-03-03T09:29:21.346Z,63.40
2023-03-03T09:30:20.324Z,61.39
2023-03-03T09:31:20.356Z,62.07
2023-03-03T09:32:20.318Z,65.47
2023-03-03T09:33:20.298Z,62.56
2023-03-03T09:34:20.309Z,65.61
2023-03-03T09:35:20.307Z,63.14
2023-03-03T09:36:20.269Z,66.70
2023-03-03T09:37:20.256Z,62.06
2023-03-03T09:38:20.248Z,65.97
2023-03-03T09:39:20.271Z,70.27
2023-03-03T09:40:20.228Z,62.55
2023-03-03T09:41:20.220Z,65.14
2023-03-03T09:42:20.230Z,62.97
2023-03-03T09:43:20.202Z,62.23
2023-03-03T09:44:20.229Z,66.06
2023-03-03T09:45:20.195Z,66.85
2023-03-03T09:46:20.233Z,65.56
2023-03-03T09:47:22.265Z,62.98
2023-03-03T09:48:21.168Z,63.00
2023-03-03T09:49:20.186Z,61.64
2023-03-03T09:50:20.152Z,61.11
2023-03-03T09:51:20.150Z,63.35
2023-03-03T09:52:20.130Z,65.42
2023-03-03T09:53:21.131Z,63.48
2023-03-03T09:54:20.137Z,65.30
2023-03-03T09:55:20.110Z,65.41
2023-03-03T09:56:20.110Z,62.76
2023-03-03T09:57:20.100Z,61.00
2023-03-03T09:58:20.092Z,66.51
2023-03-03T09:59:20.110Z,69.96
2023-03-03T10:00:20.101Z,65.47
2023-03-03T10:01:20.079Z,65.76
2023-03-03T10:02:20.109Z,66.73
2023-03-03T10:03:20.091Z,64.25
2023-03-03T10:04:20.176Z,65.07
2023-03-03T10:05:20.039Z,66.79
2023-03-03T10:06:20.023Z,65.61
2023-03-03T10:07:20.023Z,66.87
2023-03-03T10:08:20.016Z,64.11
2023-03-03T10:09:20.004Z,62.80
2023-03-03T10:10:20.027Z,66.59
2023-03-03T10:11:19.988Z,64.66
2023-03-03T10:12:19.984Z,66.76
2023-03-03T10:13:19.973Z,66.10
2023-03-03T10:14:19.996Z,62.24
2023-03-03T10:15:19.963Z,63.57
2023-03-03T10:16:19.980Z,62.95
2023-03-03T10:17:19.944Z,66.58
2023-03-03T10:18:19.939Z,65.81
2023-03-03T10:19:19.930Z,62.87
2023-03-03T10:20:19.965Z,65.64
2023-03-03T10:21:20.918Z,65.86
2023-03-03T10:22:19.901Z,70.81
2023-03-03T10:23:19.894Z,66.76
2023-03-03T10:24:19.909Z,60.67
2023-03-03T10:25:19.975Z,64.17
2023-03-03T10:26:19.872Z,63.51
2023-03-03T10:27:19.859Z,62.67
2023-03-03T10:28:19.855Z,64.99
2023-03-03T10:29:22.773Z,65.22
2023-03-03T10:30:37.124Z,62.49
2023-03-03T10:31:28.328Z,63.14
2023-03-03T10:32:21.005Z,63.98
2023-03-03T10:33:20.110Z,63.24
2023-03-03T10:34:19.832Z,62.71
2023-03-03T10:35:19.931Z,64.87
2023-03-03T10:36:19.903Z,64.65
2023-03-03T10:37:19.784Z,64.26
2023-03-03T10:38:20.786Z,61.51
2023-03-03T10:39:19.776Z,59.89
2023-03-03T10:40:19.794Z,66.78
2023-03-03T10:41:19.765Z,64.64
2023-03-03T10:42:19.751Z,64.28
2023-03-03T10:43:31.212Z,65.72
2023-03-03T10:44:21.751Z,61.75
2023-03-03T10:45:19.751Z,64.44
2023-03-03T10:46:19.813Z,63.29
2023-03-03T10:47:19.714Z,64.27
2023-03-03T10:48:19.711Z,65.11
2023-03-03T10:49:19.712Z,60.13
2023-03-03T10:50:19.734Z,66.29
2023-03-03T10:51:19.691Z,61.63
2023-03-03T10:52:19.683Z,64.77
2023-03-03T10:53:19.683Z,66.85
2023-03-03T10:54:19.663Z,63.14
2023-03-03T10:55:19.683Z,64.28
2023-03-03T10:56:19.653Z,60.75
2023-03-03T10:57:19.645Z,64.31
2023-03-03T10:58:19.648Z,58.68
2023-03-03T10:59:20.642Z,64.30
2023-03-03T11:00:19.656Z,61.07
2023-03-03T11:01:19.638Z,63.18
2023-03-03T11:02:19.593Z,65.38
2023-03-03T11:03:19.595Z,65.64
2023-03-03T11:04:19.612Z,63.97
2023-03-03T11:05:19.601Z,62.28
2023-03-03T11:06:19.575Z,63.00
2023-03-03T11:07:19.565Z,64.39
2023-03-03T11:08:19.552Z,57.45
2023-03-03T11:09:19.567Z,59.48
2023-03-03T11:10:19.581Z,61.80
2023-03-03T11:11:19.549Z,65.69
2023-03-03T11:12:22.354Z,62.80
2023-03-03T11:13:19.517Z,62.59
2023-03-03T11:14:19.515Z,64.25
2023-03-03T11:15:19.625Z,63.28
2023-03-03T11:16:19.515Z,65.54
2023-03-03T11:17:19.490Z,64.36
2023-03-03T11:18:20.254Z,66.80
2023-03-03T11:19:19.469Z,68.13
2023-03-03T11:20:19.518Z,68.41
2023-03-03T11:21:19.459Z,64.03
2023-03-03T11:22:19.452Z,62.75
2023-03-03T11:23:19.444Z,63.30
2023-03-03T11:24:19.431Z,61.30
2023-03-03T11:25:19.452Z,63.74
2023-03-03T11:26:19.436Z,62.58
2023-03-03T11:27:19.409Z,65.74
2023-03-03T11:28:19.405Z,64.81
2023-03-03T11:29:19.395Z,62.33
2023-03-03T11:30:19.390Z,65.13
2023-03-03T11:31:19.499Z,63.52
2023-03-03T11:32:19.419Z,66.55
2023-03-03T11:33:19.363Z,67.93
2023-03-03T11:34:19.352Z,65.93
2023-03-03T11:35:19.439Z,66.56
2023-03-03T11:36:19.378Z,65.19
2023-03-03T11:37:19.326Z,63.55
2023-03-03T11:38:19.328Z,66.30
2023-03-03T11:39:19.318Z,68.80
2023-03-03T11:40:19.328Z,62.15
2023-03-03T11:41:19.336Z,63.21
2023-03-03T11:42:19.311Z,63.39
2023-03-03T11:43:35.365Z,66.06
2023-03-03T11:44:21.285Z,69.07
2023-03-03T11:45:19.268Z,63.08
2023-03-03T11:46:19.342Z,64.70
2023-03-03T11:47:19.257Z,63.58
2023-03-03T11:48:19.248Z,67.52
2023-03-03T11:49:19.237Z,66.83
2023-03-03T11:50:19.229Z,63.32
2023-03-03T11:51:19.264Z,66.73
2023-03-03T11:52:19.222Z,64.39
2023-03-03T11:53:19.202Z,64.45
2023-03-03T11:54:19.197Z,65.83
2023-03-03T11:55:19.192Z,66.37
2023-03-03T11:56:19.209Z,67.16
2023-03-03T11:57:19.183Z,63.21
2023-03-03T11:58:19.165Z,63.77
2023-03-03T11:59:19.161Z,60.17
2023-03-03T12:00:19.172Z,63.85
2023-03-03T12:01:19.177Z,64.72
2023-03-03T12:02:19.229Z,63.37
2023-03-03T12:03:19.189Z,64.02
2023-03-03T12:04:19.130Z,61.67
2023-03-03T12:05:19.113Z,66.65
2023-03-03T12:06:19.185Z,62.62
2023-03-03T12:07:19.952Z,66.69
2023-03-03T12:08:20.102Z,65.16
2023-03-03T12:09:19.086Z,64.56
2023-03-03T12:10:19.077Z,65.44
2023-03-03T12:11:19.164Z,65.39
2023-03-03T12:12:19.056Z,61.46
2023-03-03T12:13:19.050Z,65.76
2023-03-03T12:14:19.037Z,64.88
2023-03-03T12:15:20.038Z,63.85
2023-03-03T12:16:19.116Z,65.13
2023-03-03T12:17:19.025Z,65.13
2023-03-03T12:18:19.031Z,63.10
2023-03-03T12:19:19.004Z,65.71
2023-03-03T12:20:19.006Z,67.15
2023-03-03T12:21:19.014Z,65.68
2023-03-03T12:22:19.027Z,67.43
2023-03-03T12:23:19.025Z,66.27
2023-03-03T12:24:19.056Z,66.65
2023-03-03T12:25:19.005Z,64.49
2023-03-03T12:26:19.020Z,68.04
2023-03-03T12:27:18.985Z,66.58
2023-03-03T12:28:18.987Z,66.32
2023-03-03T12:29:18.969Z,64.41
2023-03-03T12:30:18.987Z,64.66
2023-03-03T12:31:19.050Z,66.17
2023-03-03T12:32:18.965Z,65.34
2023-03-03T12:33:18.951Z,63.81
2023-03-03T12:34:18.946Z,65.42
2023-03-03T12:35:18.969Z,63.01
2023-03-03T12:36:18.947Z,64.85
2023-03-03T12:37:18.907Z,66.79
2023-03-03T12:38:18.893Z,66.75
2023-03-03T12:39:33.751Z,67.51
2023-03-03T12:40:20.906Z,64.09
2023-03-03T12:41:19.116Z,66.27
2023-03-03T12:42:18.871Z,65.79
2023-03-03T12:43:18.884Z,66.73
2023-03-03T12:44:18.857Z,64.17
2023-03-03T12:45:18.851Z,63.19
2023-03-03T12:46:18.867Z,66.53
2023-03-03T12:47:18.833Z,65.07
2023-03-03T12:48:18.830Z,64.99
2023-03-03T12:49:18.825Z,66.34
2023-03-03T12:50:18.814Z,70.76
2023-03-03T12:51:18.807Z,67.37
2023-03-03T12:52:18.821Z,67.11